createdAt,value
2022-11-24T00:01:08.396Z,8.64
2022-11-24T00:03:35.420Z,8.55
2022-11-24T00:06:11.076Z,8.66
2022-11-24T00:08:39.677Z,8.77
2022-11-24T00:11:09.547Z,8.53
2022-11-24T00:13:39.083Z,8.63
2022-11-24T00:16:24.050Z,8.76
2022-11-24T00:18:52.857Z,8.76
2022-11-24T00:21:20.959Z,8.76
2022-11-24T00:23:49.001Z,8.60
2022-11-24T00:26:18.509Z,8.74
2022-11-24T00:28:46.886Z,8.67
2022-11-24T00:31:23.288Z,8.70
2022-11-24T00:33:51.910Z,8.53
2022-11-24T00:36:20.557Z,8.27
2022-11-24T00:38:47.781Z,8.41
2022-11-24T00:41:14.624Z,8.17
2022-11-24T00:43:41.282Z,8.20
2022-11-24T00:46:08.286Z,8.20
2022-11-24T00:48:35.293Z,8.22
2022-11-24T00:51:04.144Z,8.30
2022-11-24T00:53:30.794Z,8.42
2022-11-24T00:55:57.937Z,8.19
2022-11-24T00:58:25.663Z,8.29
2022-11-24T01:00:52.919Z,8.27
2022-11-24T01:03:20.620Z,8.36
2022-11-24T01:05:47.529Z,8.29
2022-11-24T01:09:00.976Z,8.22
2022-11-24T01:14:38.373Z,7.96
2022-11-24T01:17:15.187Z,7.86
2022-11-24T01:19:42.132Z,8.07
2022-11-24T01:22:13.956Z,8.01
2022-11-24T01:25:02.937Z,8.08
2022-11-24T01:28:01.629Z,7.89
2022-11-24T01:31:06.102Z,7.94
2022-11-24T01:34:03.053Z,7.99
2022-11-24T01:36:54.648Z,7.92
2022-11-24T01:39:53.971Z,7.85
2022-11-24T01:42:54.112Z,7.56
2022-11-24T01:45:41.288Z,7.53
2022-11-24T01:51:12.654Z,7.49
2022-11-24T01:53:44.197Z,7.14
2022-11-24T01:56:12.308Z,7.26
2022-11-24T01:58:41.947Z,7.17
2022-11-24T02:01:09.312Z,7.36
2022-11-24T02:03:39.860Z,7.16
2022-11-24T02:06:13.548Z,7.20
2022-11-24T02:08:57.400Z,7.18
2022-11-24T02:11:28.663Z,7.20
2022-11-24T02:13:57.351Z,7.20
2022-11-24T02:16:24.086Z,7.18
2022-11-24T02:18:51.302Z,7.20
2022-11-24T02:21:18.508Z,7.13
2022-11-24T02:24:02.065Z,7.01
2022-11-24T02:26:28.673Z,7.28
2022-11-24T02:28:55.712Z,7.25
2022-11-24T02:31:22.766Z,7.18
2022-11-24T02:33:50.532Z,7.26
2022-11-24T02:36:17.368Z,7.17
2022-11-24T02:38:44.530Z,6.84
2022-11-24T02:41:17.140Z,7.19
2022-11-24T02:43:48.946Z,7.30
2022-11-24T02:46:15.651Z,7.32
2022-11-24T02:48:42.309Z,7.27
2022-11-24T02:51:09.455Z,7.34
2022-11-24T02:53:36.107Z,7.21
2022-11-24T02:56:02.808Z,7.27
2022-11-24T02:58:29.689Z,7.17
2022-11-24T03:00:58.180Z,7.33
2022-11-24T03:03:25.054Z,7.20
2022-11-24T03:05:51.691Z,7.45
2022-11-24T03:08:18.421Z,7.56
2022-11-24T03:10:45.092Z,7.60
2022-11-24T03:13:11.915Z,7.46
2022-11-24T03:15:38.630Z,7.43
2022-11-24T03:18:05.332Z,7.39
2022-11-24T03:20:32.152Z,7.49
2022-11-24T03:22:58.828Z,7.52
2022-11-24T03:25:25.458Z,7.64
2022-11-24T03:27:52.148Z,7.63
2022-11-24T03:30:18.949Z,7.46
2022-11-24T03:32:45.784Z,7.60
2022-11-24T03:35:12.404Z,7.52
2022-11-24T03:37:39.082Z,7.48
2022-11-24T03:40:06.286Z,7.77
2022-11-24T03:42:32.955Z,7.67
2022-11-24T03:45:04.245Z,7.74
2022-11-24T03:47:43.549Z,7.71
2022-11-24T03:50:10.159Z,7.60
2022-11-24T03:52:36.877Z,7.66
2022-11-24T03:55:03.685Z,7.46
2022-11-24T03:57:30.383Z,7.60
2022-11-24T03:59:57.091Z,7.47
2022-11-24T04:02:23.978Z,7.38
2022-11-24T04:04:52.184Z,7.56
2022-11-24T04:07:19.023Z,7.51
2022-11-24T04:09:45.786Z,7.62
2022-11-24T04:12:30.971Z,7.43
2022-11-24T04:14:57.620Z,7.46
2022-11-24T04:17:24.324Z,7.50
2022-11-24T04:19:50.968Z,7.58
2022-11-24T04:22:18.264Z,7.54
2022-11-24T04:24:44.903Z,7.64
2022-11-24T04:27:11.564Z,7.84
2022-11-24T04:29:38.420Z,7.71
2022-11-24T04:32:05.362Z,7.74
2022-11-24T04:34:32.356Z,7.88
2022-11-24T04:36:59.228Z,7.91
2022-11-24T04:39:28.494Z,7.75
2022-11-24T04:41:55.598Z,7.74
2022-11-24T04:44:22.575Z,7.80
2022-11-24T04:46:49.315Z,7.68
2022-11-24T04:49:16.291Z,7.76
2022-11-24T04:51:42.995Z,7.60
2022-11-24T04:54:12.132Z,7.79
2022-11-24T04:56:39.508Z,7.76
2022-11-24T04:59:08.372Z,7.69
2022-11-24T05:01:35.597Z,7.68
2022-11-24T05:04:02.299Z,7.62
2022-11-24T05:06:29.026Z,7.85
2022-11-24T05:08:55.671Z,7.92
2022-11-24T05:11:22.300Z,7.84
2022-11-24T05:13:48.936Z,7.82
2022-11-24T05:16:15.945Z,7.80
2022-11-24T05:18:42.697Z,7.49
2022-11-24T05:21:09.429Z,7.73
2022-11-24T05:23:36.238Z,7.82
2022-11-24T05:26:04.111Z,7.75
2022-11-24T05:28:31.332Z,7.83
2022-11-24T05:31:02.331Z,7.78
2022-11-24T05:33:30.286Z,7.70
2022-11-24T05:36:01.542Z,7.65
2022-11-24T05:38:29.708Z,7.73
2022-11-24T05:41:04.610Z,7.54
2022-11-24T05:43:31.517Z,7.65
2022-11-24T05:46:01.824Z,7.83
2022-11-24T05:48:28.554Z,7.81
2022-11-24T05:50:56.836Z,7.94
2022-11-24T05:53:24.096Z,7.82
2022-11-24T05:55:50.772Z,7.90
2022-11-24T05:58:17.458Z,7.88
2022-11-24T06:00:44.188Z,7.72
2022-11-24T06:03:12.249Z,7.94
2022-11-24T06:05:39.348Z,7.86
2022-11-24T06:08:06.082Z,7.74
2022-11-24T06:10:32.827Z,7.80
2022-11-24T06:12:59.507Z,7.92
2022-11-24T06:15:26.137Z,8.05
2022-11-24T06:17:55.461Z,7.96
2022-11-24T06:20:27.033Z,7.94
2022-11-24T06:23:00.213Z,7.97
2022-11-24T06:25:27.940Z,7.92
2022-11-24T06:27:55.032Z,7.95
2022-11-24T06:30:21.681Z,8.08
2022-11-24T06:32:49.947Z,7.60
2022-11-24T06:35:17.282Z,8.12
2022-11-24T06:37:44.085Z,8.18
2022-11-24T06:40:14.057Z,8.07
2022-11-24T06:42:40.674Z,8.11
2022-11-24T06:45:09.602Z,8.09
2022-11-24T06:47:36.824Z,8.28
2022-11-24T06:50:03.882Z,8.20
2022-11-24T06:52:30.860Z,8.13
2022-11-24T06:54:57.480Z,7.90
2022-11-24T06:57:24.338Z,8.07
2022-11-24T06:59:51.117Z,8.28
2022-11-24T07:02:17.732Z,7.96
2022-11-24T07:04:44.456Z,8.03
2022-11-24T07:07:11.124Z,7.71
2022-11-24T07:09:37.774Z,7.70
2022-11-24T07:12:06.020Z,7.65
2022-11-24T07:14:33.288Z,7.81
2022-11-24T07:17:02.624Z,7.48
2022-11-24T07:19:29.518Z,7.54
2022-11-24T07:21:56.358Z,7.38
2022-11-24T07:24:23.086Z,7.45
2022-11-24T07:26:49.694Z,7.23
2022-11-24T07:29:16.457Z,7.37
2022-11-24T07:31:43.401Z,7.15
2022-11-24T07:34:10.309Z,7.25
2022-11-24T07:36:36.998Z,7.12
2022-11-24T07:39:06.619Z,6.94
2022-11-24T07:41:33.289Z,7.17
2022-11-24T07:43:59.939Z,7.17
2022-11-24T07:46:26.749Z,7.22
2022-11-24T07:48:53.840Z,6.96
2022-11-24T07:51:20.521Z,7.06
2022-11-24T07:53:47.269Z,7.17
2022-11-24T07:56:14.062Z,7.05
2022-11-24T07:58:40.882Z,7.39
2022-11-24T08:01:18.062Z,7.46
2022-11-24T08:03:45.931Z,7.35
2022-11-24T08:06:38.165Z,7.07
2022-11-24T08:09:00.327Z,7.00
2022-11-24T08:11:27.832Z,7.32
2022-11-24T08:13:54.661Z,7.13
2022-11-24T08:16:21.480Z,7.17
2022-11-24T08:18:53.683Z,7.15
2022-11-24T08:21:20.824Z,6.99
2022-11-24T08:23:47.463Z,7.16
2022-11-24T08:26:17.894Z,7.33
2022-11-24T08:28:46.166Z,6.88
2022-11-24T08:31:20.733Z,7.28
2022-11-24T08:33:47.730Z,7.20
2022-11-24T08:36:17.527Z,7.20
2022-11-24T08:38:45.046Z,7.21
2022-11-24T08:41:14.317Z,7.31
2022-11-24T08:43:41.947Z,7.17
2022-11-24T08:46:13.978Z,7.29
2022-11-24T08:48:41.698Z,7.30
2022-11-24T08:51:11.884Z,7.28
2022-11-24T08:53:39.641Z,7.25
2022-11-24T08:56:07.525Z,7.31
2022-11-24T08:58:35.237Z,7.27
2022-11-24T09:01:11.301Z,7.38
2022-11-24T09:03:38.437Z,7.25
2022-11-24T09:06:06.291Z,7.35
2022-11-24T09:08:33.685Z,7.41
2022-11-24T09:11:05.036Z,7.58
2022-11-24T09:13:32.212Z,7.11
2022-11-24T09:16:06.007Z,7.67
2022-11-24T09:18:33.002Z,7.72
2022-11-24T09:21:26.002Z,7.82
2022-11-24T09:23:54.250Z,7.78
2022-11-24T09:26:26.973Z,7.88
2022-11-24T09:28:55.426Z,7.63
2022-11-24T09:31:31.208Z,7.68
2022-11-24T09:33:58.062Z,7.90
2022-11-24T09:36:25.139Z,7.94
2022-11-24T09:38:52.226Z,7.70
2022-11-24T09:41:21.732Z,8.01
2022-11-24T09:44:06.360Z,8.06
2022-11-24T09:46:50.219Z,8.11
2022-11-24T09:49:24.464Z,8.18
2022-11-24T09:51:55.151Z,7.92
2022-11-24T09:54:28.873Z,8.23
2022-11-24T09:56:59.860Z,8.23
2022-11-24T09:59:27.617Z,8.40
2022-11-24T10:01:55.923Z,8.49
2022-11-24T10:04:28.449Z,8.29
2022-11-24T10:06:57.993Z,8.48
2022-11-24T10:09:36.955Z,8.58
2022-11-24T10:12:28.380Z,8.67
2022-11-24T10:15:07.766Z,8.68
2022-11-24T10:18:16.383Z,8.69
2022-11-24T10:20:57.230Z,8.68
2022-11-24T10:23:51.573Z,8.74
2022-11-24T10:26:39.753Z,8.39
2022-11-24T10:29:12.507Z,8.69
2022-11-24T10:31:43.041Z,8.74
2022-11-24T10:34:16.135Z,8.92
2022-11-24T10:37:00.997Z,9.16
2022-11-24T10:40:17.211Z,9.22
2022-11-24T10:42:53.515Z,8.96
2022-11-24T10:45:22.418Z,9.30
2022-11-24T10:47:49.815Z,9.19
2022-11-24T10:50:24.690Z,9.44
2022-11-24T10:53:00.054Z,9.35
2022-11-24T10:55:26.851Z,9.03
2022-11-24T10:57:53.538Z,9.05
2022-11-24T11:00:20.129Z,9.29
2022-11-24T11:02:49.427Z,9.03
2022-11-24T11:05:42.188Z,9.43
2022-11-24T11:08:22.145Z,9.50
2022-11-24T11:10:51.741Z,9.72
2022-11-24T11:13:30.197Z,9.66
2022-11-24T11:15:58.685Z,9.31
2022-11-24T11:18:32.822Z,9.54
2022-11-24T11:21:04.891Z,9.89
2022-11-24T11:23:35.376Z,9.85
2022-11-24T11:26:32.440Z,9.87
2022-11-24T11:35:13.351Z,9.86
2022-11-24T11:37:40.583Z,9.74
2022-11-24T11:40:16.173Z,9.81
2022-11-24T11:43:03.213Z,9.55
2022-11-24T11:45:40.676Z,9.88
2022-11-24T11:48:25.505Z,9.96
2022-11-24T11:51:22.934Z,9.89
2022-11-24T11:54:09.954Z,9.88
2022-11-24T11:56:44.477Z,10.01
2022-11-24T11:59:20.566Z,10.18
2022-11-24T12:01:56.032Z,10.02
2022-11-24T12:04:48.595Z,9.82
2022-11-24T12:07:39.662Z,10.00
2022-11-24T12:10:36.296Z,9.99
2022-11-24T12:13:19.809Z,10.18
2022-11-24T12:15:49.618Z,10.50
2022-11-24T12:18:57.529Z,10.14
2022-11-24T12:21:49.571Z,10.40
2022-11-24T12:24:25.895Z,10.33
2022-11-24T12:27:09.212Z,10.33
2022-11-24T12:30:02.741Z,10.52
2022-11-24T12:32:38.953Z,10.47
2022-11-24T12:35:15.526Z,10.52
2022-11-24T12:38:08.830Z,10.53
2022-11-24T12:40:47.120Z,10.45
2022-11-24T12:43:30.137Z,10.40
2022-11-24T12:46:19.511Z,10.45
2022-11-24T12:49:01.290Z,10.73
2022-11-24T12:51:33.464Z,10.31
2022-11-24T12:54:03.393Z,10.13
2022-11-24T12:56:40.779Z,10.41
2022-11-24T12:59:25.678Z,10.81
2022-11-24T13:01:52.634Z,10.64
2022-11-24T13:04:43.282Z,10.78
2022-11-24T13:07:11.562Z,10.58
2022-11-24T13:09:38.466Z,10.77
2022-11-24T13:12:13.962Z,10.47
2022-11-24T13:14:49.974Z,10.57
2022-11-24T13:17:50.265Z,10.48
2022-11-24T13:20:20.949Z,10.28
2022-11-24T13:22:55.238Z,10.36
2022-11-24T13:25:23.768Z,10.57
2022-11-24T13:27:57.639Z,10.56
2022-11-24T13:30:54.291Z,10.71
2022-11-24T13:33:30.235Z,10.58
2022-11-24T13:36:02.983Z,10.67
2022-11-24T13:38:44.934Z,10.55
2022-11-24T13:41:31.511Z,10.47
2022-11-24T13:44:16.409Z,10.54
2022-11-24T13:47:00.209Z,10.66
2022-11-24T13:49:42.807Z,10.34
2022-11-24T13:52:42.728Z,10.56
2022-11-24T13:55:12.225Z,10.54
2022-11-24T13:57:40.769Z,10.51
2022-11-24T14:00:24.601Z,10.90
2022-11-24T14:03:17.231Z,10.73
2022-11-24T14:05:52.338Z,10.31
2022-11-24T14:08:25.292Z,10.42
2022-11-24T14:10:53.705Z,10.60
2022-11-24T14:13:26.156Z,10.53
2022-11-24T14:16:06.768Z,10.33
2022-11-24T14:18:34.809Z,10.14
2022-11-24T14:21:21.003Z,10.42
2022-11-24T14:23:55.930Z,10.43
2022-11-24T14:26:35.484Z,10.39
2022-11-24T14:29:21.628Z,10.47
2022-11-24T14:32:04.946Z,10.46
2022-11-24T14:34:35.561Z,10.57
2022-11-24T14:37:02.581Z,10.28
2022-11-24T14:39:30.428Z,10.51
2022-11-24T14:42:18.319Z,10.56
2022-11-24T14:44:47.966Z,10.82
2022-11-24T14:47:37.856Z,10.66
2022-11-24T14:50:10.847Z,10.58
2022-11-24T14:52:45.418Z,10.61
2022-11-24T14:55:33.001Z,10.42
2022-11-24T14:58:00.313Z,10.37
2022-11-24T15:00:33.199Z,10.43
2022-11-24T15:03:03.067Z,10.41
2022-11-24T15:05:55.867Z,10.43
2022-11-24T15:08:27.707Z,10.31
2022-11-24T15:11:02.387Z,10.43
2022-11-24T15:13:33.141Z,10.46
2022-11-24T15:16:03.983Z,10.23
2022-11-24T15:18:39.582Z,10.25
2022-11-24T15:21:06.855Z,9.95
2022-11-24T15:23:35.403Z,9.93
2022-11-24T15:26:02.017Z,10.17
2022-11-24T15:28:30.277Z,9.78
2022-11-24T15:31:03.580Z,10.12
2022-11-24T15:33:31.099Z,10.10
2022-11-24T15:35:59.011Z,10.16
2022-11-24T15:38:25.721Z,10.05
2022-11-24T15:40:55.176Z,10.18
2022-11-24T15:43:27.834Z,9.78
2022-11-24T15:45:54.503Z,10.16
2022-11-24T15:48:21.167Z,9.73
2022-11-24T15:50:48.625Z,10.14
2022-11-24T15:53:30.577Z,10.01
2022-11-24T15:55:57.834Z,9.86
2022-11-24T15:58:24.976Z,9.99
2022-11-24T16:00:53.616Z,9.97
2022-11-24T16:06:24.148Z,10.12
2022-11-24T16:08:52.718Z,10.05
2022-11-24T16:11:19.599Z,10.21
2022-11-24T16:13:51.874Z,10.01
2022-11-24T16:16:20.188Z,9.94
2022-11-24T16:18:46.920Z,9.82
2022-11-24T16:21:13.627Z,9.90
2022-11-24T16:23:40.305Z,9.52
2022-11-24T16:26:07.266Z,9.95
2022-11-24T16:28:34.102Z,10.00
2022-11-24T16:31:00.771Z,9.56
2022-11-24T16:33:29.784Z,9.64
2022-11-24T16:35:56.394Z,9.48
2022-11-24T16:38:23.309Z,9.64
2022-11-24T16:40:54.187Z,9.69
2022-11-24T16:43:21.121Z,9.55
2022-11-24T16:46:01.538Z,9.79
2022-11-24T16:48:28.243Z,9.88
2022-11-24T16:50:54.954Z,9.70
2022-11-24T16:53:21.682Z,9.61
2022-11-24T16:55:57.408Z,9.74
2022-11-24T16:58:24.182Z,9.45
2022-11-24T17:00:50.855Z,9.60
2022-11-24T17:03:17.525Z,9.81
2022-11-24T17:05:44.678Z,9.98
2022-11-24T17:08:11.311Z,9.78
2022-11-24T17:10:39.573Z,9.93
2022-11-24T17:13:06.259Z,10.21
2022-11-24T17:15:36.611Z,10.12
2022-11-24T17:18:24.127Z,10.09
2022-11-24T17:20:51.737Z,10.27
2022-11-24T17:23:19.731Z,10.29
2022-11-24T17:25:46.584Z,10.21
2022-11-24T17:28:13.256Z,10.31
2022-11-24T17:30:39.970Z,10.07
2022-11-24T17:33:06.738Z,10.33
2022-11-24T17:35:37.127Z,10.36
2022-11-24T17:38:04.404Z,10.41
2022-11-24T17:40:31.117Z,10.34
2022-11-24T17:42:59.683Z,10.75
2022-11-24T17:45:28.242Z,10.52
2022-11-24T17:47:55.368Z,10.42
2022-11-24T17:50:25.679Z,10.52
2022-11-24T17:52:53.783Z,10.37
2022-11-24T17:55:20.545Z,10.19
2022-11-24T17:57:47.203Z,10.47
2022-11-24T18:00:14.425Z,10.49
2022-11-24T18:02:41.070Z,10.45
2022-11-24T18:05:08.208Z,10.74
2022-11-24T18:07:37.708Z,10.80
2022-11-24T18:10:04.894Z,10.43
2022-11-24T18:12:32.493Z,10.46
2022-11-24T18:14:59.209Z,10.47
2022-11-24T18:17:25.908Z,10.74
2022-11-24T18:19:52.612Z,10.55
2022-11-24T18:22:31.415Z,10.68
2022-11-24T18:25:07.136Z,10.47
2022-11-24T18:27:33.783Z,10.56
2022-11-24T18:30:00.502Z,10.96
2022-11-24T18:32:27.273Z,10.64
2022-11-24T18:34:54.214Z,10.63
2022-11-24T18:37:20.866Z,10.86
2022-11-24T18:39:47.573Z,10.81
2022-11-24T18:42:14.259Z,10.74
2022-11-24T18:44:42.483Z,10.75
2022-11-24T18:47:09.198Z,10.87
2022-11-24T18:49:35.822Z,10.96
2022-11-24T18:52:02.501Z,10.75
2022-11-24T18:54:29.383Z,10.59
2022-11-24T18:57:01.738Z,10.72
2022-11-24T18:59:29.864Z,10.68
2022-11-24T19:01:58.011Z,11.01
2022-11-24T19:04:26.293Z,10.76
2022-11-24T19:06:52.983Z,10.59
2022-11-24T19:09:22.558Z,10.73
2022-11-24T19:11:49.278Z,10.92
2022-11-24T19:14:18.406Z,10.95
2022-11-24T19:16:48.019Z,10.72
2022-11-24T19:19:17.059Z,10.76
2022-11-24T19:21:44.113Z,10.66
2022-11-24T19:24:11.746Z,10.73
2022-11-24T19:26:49.799Z,10.76
2022-11-24T19:29:16.463Z,10.75
2022-11-24T19:31:44.022Z,10.51
2022-11-24T19:34:10.716Z,10.76
2022-11-24T19:36:37.493Z,10.34
2022-11-24T19:39:05.246Z,10.39
2022-11-24T19:41:33.660Z,10.40
2022-11-24T19:44:00.682Z,10.08
2022-11-24T19:46:29.709Z,10.56
2022-11-24T19:48:59.770Z,10.45
2022-11-24T19:51:30.803Z,10.30
2022-11-24T19:53:58.230Z,10.16
2022-11-24T19:56:27.133Z,10.00
2022-11-24T19:58:55.215Z,10.07
2022-11-24T20:01:24.746Z,10.15
2022-11-24T20:04:02.901Z,10.14
2022-11-24T20:06:32.616Z,10.33
2022-11-24T20:09:00.746Z,10.34
2022-11-24T20:11:28.380Z,10.24
2022-11-24T20:13:55.442Z,10.17
2022-11-24T20:16:26.703Z,10.01
2022-11-24T20:18:55.547Z,10.15
2022-11-24T20:21:25.598Z,10.24
2022-11-24T20:23:57.788Z,10.21
2022-11-24T20:26:26.196Z,10.28
2022-11-24T20:28:55.389Z,10.10
2022-11-24T20:31:31.527Z,10.15
2022-11-24T20:34:00.040Z,10.14
2022-11-24T20:36:29.309Z,10.07
2022-11-24T20:38:58.490Z,10.08
2022-11-24T20:41:27.761Z,10.09
2022-11-24T20:43:56.465Z,10.01
2022-11-24T20:46:25.604Z,10.02
2022-11-24T20:48:53.713Z,10.06
2022-11-24T20:51:23.152Z,9.95
2022-11-24T20:53:51.881Z,9.94
2022-11-24T20:56:21.833Z,10.07
2022-11-24T20:58:49.450Z,9.93
2022-11-24T21:01:18.895Z,9.98
2022-11-24T21:03:47.661Z,10.01
2022-11-24T21:06:14.722Z,9.82
2022-11-24T21:08:42.824Z,10.01
2022-11-24T21:11:12.218Z,10.12
2022-11-24T21:13:40.584Z,10.12
2022-11-24T21:16:14.639Z,10.18
2022-11-24T21:18:41.995Z,10.06
2022-11-24T21:21:09.364Z,10.16
2022-11-24T21:23:36.097Z,10.19
2022-11-24T21:26:05.689Z,10.19
2022-11-24T21:28:33.492Z,9.81
2022-11-24T21:31:15.039Z,10.14
2022-11-24T21:33:46.535Z,10.27
2022-11-24T21:36:15.850Z,9.94
2022-11-24T21:38:42.889Z,9.93
2022-11-24T21:41:11.355Z,10.16
2022-11-24T21:43:38.772Z,9.87
2022-11-24T21:46:08.199Z,9.80
2022-11-24T21:48:36.302Z,9.75
2022-11-24T21:51:05.726Z,9.60
2022-11-24T21:53:35.009Z,9.79
2022-11-24T21:56:09.778Z,9.66
2022-11-24T21:58:36.702Z,9.41
2022-11-24T22:01:10.935Z,9.57
2022-11-24T22:03:38.349Z,9.48
2022-11-24T22:06:05.681Z,9.37
2022-11-24T22:08:32.398Z,9.13
2022-11-24T22:11:07.361Z,9.35
2022-11-24T22:13:34.665Z,9.64
2022-11-24T22:16:07.742Z,9.71
2022-11-24T22:18:36.697Z,9.49
2022-11-24T22:21:04.908Z,9.51
2022-11-24T22:23:32.972Z,9.79
2022-11-24T22:26:03.965Z,9.77
2022-11-24T22:28:35.446Z,9.71
2022-11-24T22:31:11.500Z,9.70
2022-11-24T22:33:38.420Z,9.41
2022-11-24T22:36:06.080Z,9.46
2022-11-24T22:38:33.661Z,9.46
2022-11-24T22:41:11.420Z,9.51
2022-11-24T22:43:39.391Z,9.55
2022-11-24T22:46:11.173Z,9.30
2022-11-24T22:48:38.931Z,8.97
2022-11-24T22:51:08.044Z,9.24
2022-11-24T22:53:34.993Z,9.28
2022-11-24T22:56:03.008Z,9.25
2022-11-24T22:58:31.144Z,9.07
2022-11-24T23:01:03.370Z,9.18
2022-11-24T23:03:30.128Z,9.04
2022-11-24T23:06:00.792Z,9.10
2022-11-24T23:08:27.581Z,8.78
2022-11-24T23:11:08.504Z,9.04
2022-11-24T23:13:35.769Z,9.18
2022-11-24T23:16:04.952Z,9.01
2022-11-24T23:18:31.725Z,9.05
2022-11-24T23:21:05.143Z,8.82
2022-11-24T23:23:32.324Z,8.98
2022-11-24T23:26:03.623Z,8.74
2022-11-24T23:28:30.323Z,8.74
2022-11-24T23:31:05.323Z,8.97
2022-11-24T23:33:32.268Z,8.81
2022-11-24T23:36:05.212Z,9.07
2022-11-24T23:38:35.203Z,8.97
2022-11-24T23:41:04.626Z,9.17
2022-11-24T23:43:32.533Z,9.26
2022-11-24T23:46:10.777Z,9.00
2022-11-24T23:48:38.013Z,8.96
2022-11-24T23:51:08.809Z,9.04
2022-11-24T23:53:36.636Z,9.19
2022-11-24T23:56:04.104Z,9.24
2022-11-24T23:58:31.831Z,9.24
